首页
METAR-TAF:

METAR-TAF

机场 :

曼哈頓, 堪薩斯州, 美国

纬度: 39-08-07N, 经度: 096-40-40W, 海拔: 321米

当前天气观测

该预报发布于1小时和14分钟前的22:52 UTC
风速11节,风向,有时为23节阵风
温度 33°C
湿度 53%
气压 1006 hPa
能見度: 16.1公里
天空无云

METAR: KMHK 162252Z 18011G23KT 10SM CLR 33/22 A2971 RMK AO2 SLP050 T03330222

时间: 19:06 (00:06 UTC)

预报

该预报发布于42分钟前的23:24 UTC
预报有效从17日的 00点(UTC)到 17日的 24点(UTC)
风速11节,风向,有时为18节阵风
能見度: 10公里
天空无云
从 17日的 1400点(UTC)
风速18节,风向,有时为30节阵风
能見度: 10公里
少量云层高于5000英尺

TAF: KMHK 162324Z 1700/1724 18011G18KT P6SM SKC FM171400 19018G30KT P6SM FEW050

超过4000个机场的气象观测和天气预报(METAR&TAF报告)。

可查询的气象台以黄色和红色小点在地图上表示。

将鼠标移到小点上方,可查看气象台名称。

然后点击查看天气观测和预报。

如需切换地图:点击带黑十字的绿色按钮放大地图;点击带横线的绿色按钮缩小地图;或者点击绿色箭头查看邻近地区的地图。


METAR-TAF: